createdAt,value
2023-03-15T15:06:10.456Z,1001.09
2023-03-15T15:06:16.258Z,1001.08
2023-03-15T15:06:26.420Z,1001.12
2023-03-15T15:06:36.542Z,1001.15
2023-03-15T15:06:47.346Z,1001.09
2023-03-15T15:07:00.206Z,1001.04
2023-03-15T15:07:07.655Z,1001.10
2023-03-15T15:07:17.869Z,1001.07
2023-03-15T15:07:27.286Z,1001.09
2023-03-15T15:07:37.513Z,1001.07
2023-03-15T15:07:48.407Z,1001.00
2023-03-15T15:07:58.345Z,1000.94
2023-03-15T15:08:07.787Z,1000.92
2023-03-15T15:08:17.868Z,1000.80
2023-03-15T15:08:28.186Z,1000.76
2023-03-15T15:08:38.434Z,1000.62
2023-03-15T15:08:48.371Z,1000.60
2023-03-15T15:09:02.044Z,1000.54
2023-03-15T15:09:09.421Z,1000.50
2023-03-15T15:09:19.538Z,1000.42
2023-03-15T15:09:28.729Z,1000.34
2023-03-15T15:09:40.427Z,1000.29
2023-03-15T15:09:49.932Z,1000.23
2023-03-15T15:09:59.112Z,1000.18
2023-03-15T15:10:09.306Z,1000.20
2023-03-15T15:10:19.539Z,1000.21
2023-03-15T15:10:30.006Z,1000.25
2023-03-15T15:10:40.598Z,1000.29
2023-03-15T15:10:49.738Z,1000.34
2023-03-15T15:10:59.940Z,1000.41
2023-03-15T15:11:10.377Z,1000.43
2023-03-15T15:11:20.264Z,1000.55
2023-03-15T15:11:30.743Z,1000.60
2023-03-15T15:11:40.977Z,1000.61
2023-03-15T15:11:50.617Z,1000.71
2023-03-15T15:12:00.952Z,1000.71
2023-03-15T15:12:11.121Z,1000.76
2023-03-15T15:12:20.948Z,1000.78
2023-03-15T15:12:31.858Z,1000.78
2023-03-15T15:12:41.183Z,1000.84
2023-03-15T15:13:05.176Z,1000.85
2023-03-15T15:13:18.129Z,1000.91
2023-03-15T15:13:24.037Z,1001.17
2023-03-15T15:13:33.826Z,1001.27
2023-03-15T15:13:45.153Z,1001.34
2023-03-15T15:13:54.799Z,1001.38
2023-03-15T15:14:04.447Z,1001.37
2023-03-15T15:14:14.374Z,1001.36
2023-03-15T15:14:24.638Z,1001.35
2023-03-15T15:14:35.565Z,1001.34
2023-03-15T15:14:44.671Z,1001.30
2023-03-15T15:15:21.602Z,1001.25
2023-03-15T15:15:27.907Z,1001.06
2023-03-15T15:15:54.344Z,1001.00
2023-03-15T15:16:00.761Z,1000.95
2023-03-15T15:16:07.432Z,1000.85
2023-03-15T15:16:17.440Z,1000.79
2023-03-15T15:16:26.842Z,1000.81
2023-03-15T15:16:36.707Z,1000.77
2023-03-15T15:16:47.170Z,1000.70
2023-03-15T15:16:56.934Z,1000.71
2023-03-15T15:17:08.150Z,1000.72
2023-03-15T15:17:19.154Z,1000.70
